Terminal Aerodrome Forecast
Issued by NWS Portland, OR

Home | Current Version | Previous Version | Text Only | Print | Product List | Glossary On
Versions: 1 2 3 4 5 6 7 8 9 10 11 12 13 14 15 16 17 18 19 20 21 22 23 24 25 26 27 28
000
FTUS46 KPQR 220520
TAFAST
TAF
KAST 220520Z 2206/2306 21025G40KT 2SM RA OVC006
     FM220900 23025G35KT 6SM -SHRA SCT015 OVC025
     FM221200 24015G25KT P6SM -SHRA SCT020 BKN035 OVC060
     FM230300 21005KT P6SM SCT020 BKN040=

USA.gov is the U.S. government's official web portal to all federal, state and local government web resources and services.